createdAt,value
2019-02-24T00:01:34.523Z,7.90
2019-02-24T00:04:03.377Z,6.77
2019-02-24T00:06:32.060Z,6.00
2019-02-24T00:09:00.731Z,6.63
2019-02-24T00:11:29.426Z,6.47
2019-02-24T00:13:58.521Z,6.17
2019-02-24T00:16:27.188Z,6.17
2019-02-24T00:18:56.093Z,7.87
2019-02-24T00:21:24.869Z,6.73
2019-02-24T00:23:53.539Z,7.17
2019-02-24T00:26:22.355Z,6.23
2019-02-24T00:28:51.207Z,6.60
2019-02-24T00:31:20.014Z,7.57
2019-02-24T00:33:48.837Z,7.73
2019-02-24T00:36:17.618Z,6.97
2019-02-24T00:38:46.279Z,7.97
2019-02-24T00:41:14.980Z,6.77
2019-02-24T00:43:43.616Z,7.53
2019-02-24T00:46:12.484Z,6.77
2019-02-24T00:48:41.456Z,7.97
2019-02-24T00:51:10.230Z,6.77
2019-02-24T00:53:39.044Z,6.73
2019-02-24T00:56:07.720Z,6.90
2019-02-24T00:58:36.638Z,7.60
2019-02-24T01:01:05.353Z,6.70
2019-02-24T01:03:34.276Z,7.63
2019-02-24T01:06:03.138Z,7.37
2019-02-24T01:08:31.860Z,7.50
2019-02-24T01:11:00.922Z,7.37
2019-02-24T01:13:29.747Z,6.90
2019-02-24T01:15:58.488Z,6.50
2019-02-24T01:18:27.320Z,7.83
2019-02-24T01:20:56.006Z,6.07
2019-02-24T01:23:24.830Z,6.03
2019-02-24T01:25:53.952Z,6.87
2019-02-24T01:28:25.363Z,6.17
2019-02-24T01:30:53.424Z,7.33
2019-02-24T01:33:22.244Z,7.37
2019-02-24T01:35:50.976Z,7.13
2019-02-24T01:38:19.763Z,7.47
2019-02-24T01:40:48.375Z,6.97
2019-02-24T01:43:17.101Z,6.10
2019-02-24T01:45:45.776Z,7.37
2019-02-24T01:48:14.439Z,6.50
2019-02-24T01:50:43.416Z,9.53
2019-02-24T01:53:12.113Z,6.97
2019-02-24T01:55:41.001Z,7.07
2019-02-24T01:58:09.859Z,6.20
2019-02-24T02:00:38.599Z,7.23
2019-02-24T02:03:07.510Z,6.03
2019-02-24T02:05:36.311Z,7.17
2019-02-24T02:08:05.009Z,7.37
2019-02-24T02:10:33.650Z,9.00
2019-02-24T02:13:02.395Z,6.63
2019-02-24T02:15:31.075Z,8.07
2019-02-24T02:17:59.978Z,7.10
2019-02-24T02:20:28.588Z,7.40
2019-02-24T02:22:57.497Z,7.83
2019-02-24T02:25:26.240Z,8.53
2019-02-24T02:27:54.909Z,6.80
2019-02-24T02:30:23.580Z,7.77
2019-02-24T02:32:52.280Z,7.47
2019-02-24T02:35:21.025Z,6.60
2019-02-24T02:37:49.862Z,7.67
2019-02-24T02:40:18.517Z,7.60
2019-02-24T02:42:47.261Z,9.37
2019-02-24T02:45:15.961Z,6.93
2019-02-24T02:47:44.884Z,6.10
2019-02-24T02:50:13.787Z,6.33
2019-02-24T02:52:42.616Z,6.27
2019-02-24T02:55:11.477Z,8.23
2019-02-24T02:57:40.167Z,7.50
2019-02-24T03:00:12.572Z,6.57
2019-02-24T03:02:41.218Z,6.50
2019-02-24T03:05:10.064Z,7.43
2019-02-24T03:07:48.641Z,5.70
2019-02-24T03:10:17.452Z,6.23
2019-02-24T03:12:46.210Z,6.30
2019-02-24T03:15:14.874Z,5.43
2019-02-24T03:17:43.612Z,8.47
2019-02-24T03:20:12.411Z,5.97
2019-02-24T03:22:41.117Z,7.23
2019-02-24T03:25:09.833Z,6.33
2019-02-24T03:27:38.548Z,5.93
2019-02-24T03:30:07.522Z,6.27
2019-02-24T03:32:36.123Z,5.60
2019-02-24T03:35:05.002Z,5.83
2019-02-24T03:37:33.765Z,6.77
2019-02-24T03:40:02.512Z,6.87
2019-02-24T03:42:31.300Z,5.80
2019-02-24T03:45:00.088Z,5.30
2019-02-24T03:47:28.926Z,5.20
2019-02-24T03:49:57.742Z,5.90
2019-02-24T03:52:26.542Z,5.70
2019-02-24T03:54:55.548Z,6.63
2019-02-24T03:57:24.502Z,5.23
2019-02-24T03:59:53.270Z,6.03
2019-02-24T04:02:21.962Z,5.60
2019-02-24T04:04:50.695Z,6.33
2019-02-24T04:07:19.528Z,5.83
2019-02-24T04:09:48.228Z,6.67
2019-02-24T04:12:16.869Z,5.63
2019-02-24T04:14:45.799Z,6.33
2019-02-24T04:17:14.574Z,6.27
2019-02-24T04:19:43.325Z,5.27
2019-02-24T04:22:12.060Z,5.83
2019-02-24T04:24:40.707Z,6.17
2019-02-24T04:27:11.721Z,5.97
2019-02-24T04:29:40.167Z,6.23
2019-02-24T04:32:09.020Z,5.50
2019-02-24T04:34:37.648Z,5.63
2019-02-24T04:37:06.520Z,6.00
2019-02-24T04:39:35.256Z,6.57
2019-02-24T04:42:04.020Z,5.37
2019-02-24T04:44:32.841Z,6.27
2019-02-24T04:47:01.583Z,4.93
2019-02-24T04:49:30.252Z,5.43
2019-02-24T04:51:58.985Z,4.93
2019-02-24T04:54:27.816Z,5.37
2019-02-24T04:56:56.548Z,5.77
2019-02-24T04:59:34.571Z,6.70
2019-02-24T05:01:55.940Z,6.63
2019-02-24T05:04:24.652Z,5.13
2019-02-24T05:06:53.366Z,5.50
2019-02-24T05:09:22.409Z,5.27
2019-02-24T05:11:51.053Z,6.37
2019-02-24T05:14:19.796Z,4.33
2019-02-24T05:16:48.424Z,6.03
2019-02-24T05:19:17.434Z,6.07
2019-02-24T05:21:46.280Z,6.73
2019-02-24T05:24:15.078Z,5.83
2019-02-24T05:26:43.947Z,5.83
2019-02-24T05:29:12.697Z,6.70
2019-02-24T05:31:41.552Z,5.00
2019-02-24T05:34:10.343Z,5.37
2019-02-24T05:36:38.979Z,6.90
2019-02-24T05:39:07.819Z,6.07
2019-02-24T05:41:36.579Z,5.50
2019-02-24T05:44:05.482Z,6.37
2019-02-24T05:46:34.328Z,5.90
2019-02-24T05:49:03.042Z,5.70
2019-02-24T05:51:31.874Z,5.33
2019-02-24T05:54:00.832Z,5.70
2019-02-24T05:56:29.758Z,7.13
2019-02-24T05:58:58.580Z,4.60
2019-02-24T06:01:27.424Z,5.17
2019-02-24T06:03:56.163Z,5.77
2019-02-24T06:06:24.782Z,6.43
2019-02-24T06:08:53.504Z,5.67
2019-02-24T06:11:22.164Z,6.83
2019-02-24T06:13:52.169Z,5.67
2019-02-24T06:16:21.078Z,5.93
2019-02-24T06:18:49.918Z,5.10
2019-02-24T06:21:18.633Z,5.93
2019-02-24T06:23:47.484Z,5.73
2019-02-24T06:26:16.173Z,5.43
2019-02-24T06:28:44.960Z,5.93
2019-02-24T06:31:13.751Z,5.83
2019-02-24T06:33:42.433Z,7.73
2019-02-24T06:36:11.465Z,5.23
2019-02-24T06:38:40.056Z,5.03
2019-02-24T06:41:08.846Z,5.03
2019-02-24T06:43:37.630Z,4.40
2019-02-24T06:46:06.475Z,5.00
2019-02-24T06:48:35.104Z,5.60
2019-02-24T06:51:08.441Z,5.17
2019-02-24T06:53:37.173Z,5.23
2019-02-24T06:56:05.929Z,5.77
2019-02-24T06:58:34.765Z,4.30
2019-02-24T07:01:03.496Z,6.43
2019-02-24T07:03:32.188Z,5.47
2019-02-24T07:06:01.220Z,5.70
2019-02-24T07:08:29.919Z,5.30
2019-02-24T07:10:58.611Z,5.87
2019-02-24T07:13:27.372Z,7.70
2019-02-24T07:15:56.378Z,5.80
2019-02-24T07:18:25.179Z,7.33
2019-02-24T07:20:54.031Z,6.23
2019-02-24T07:23:22.825Z,6.13
2019-02-24T07:25:51.592Z,5.83
2019-02-24T07:28:20.657Z,5.93
2019-02-24T07:30:49.524Z,5.73
2019-02-24T07:33:18.260Z,6.17
2019-02-24T07:35:47.105Z,5.93
2019-02-24T07:38:15.823Z,6.17
2019-02-24T07:40:44.621Z,5.77
2019-02-24T07:43:13.607Z,6.57
2019-02-24T07:45:42.531Z,6.83
2019-02-24T07:48:11.318Z,7.20
2019-02-24T07:50:40.312Z,6.03
2019-02-24T07:53:08.973Z,6.33
2019-02-24T07:55:37.835Z,5.43
2019-02-24T07:58:06.539Z,6.00
2019-02-24T08:00:35.231Z,6.73
2019-02-24T08:03:03.947Z,6.80
2019-02-24T08:05:32.946Z,6.63
2019-02-24T08:08:02.581Z,7.83
2019-02-24T08:10:31.635Z,7.83
2019-02-24T08:13:00.621Z,6.27
2019-02-24T08:15:29.257Z,5.97
2019-02-24T08:17:57.944Z,7.60
2019-02-24T08:20:26.613Z,7.10
2019-02-24T08:22:55.654Z,7.17
2019-02-24T08:25:24.581Z,7.83
2019-02-24T08:27:55.502Z,6.70
2019-02-24T08:30:24.006Z,7.70
2019-02-24T08:32:52.883Z,9.13
2019-02-24T08:35:21.631Z,9.83
2019-02-24T08:37:50.275Z,8.43
2019-02-24T08:40:19.147Z,7.70
2019-02-24T08:42:47.998Z,7.10
2019-02-24T08:45:16.636Z,9.43
2019-02-24T08:47:45.415Z,7.50
2019-02-24T08:50:14.163Z,7.43
2019-02-24T08:52:42.863Z,8.43
2019-02-24T08:55:11.646Z,8.53
2019-02-24T08:57:40.559Z,7.53
2019-02-24T09:00:09.835Z,7.60
2019-02-24T09:02:38.561Z,8.40
2019-02-24T09:05:07.532Z,10.03
2019-02-24T09:07:36.284Z,7.90
2019-02-24T09:10:05.339Z,9.27
2019-02-24T09:12:34.266Z,7.33
2019-02-24T09:15:03.008Z,7.20
2019-02-24T09:17:31.891Z,8.07
2019-02-24T09:20:00.762Z,8.27
2019-02-24T09:22:29.860Z,7.83
2019-02-24T09:24:59.095Z,8.23
2019-02-24T09:27:27.827Z,9.97
2019-02-24T09:29:56.510Z,8.37
2019-02-24T09:32:25.251Z,7.73
2019-02-24T09:34:54.051Z,9.83
2019-02-24T09:37:22.771Z,9.03
2019-02-24T09:39:51.508Z,9.37
2019-02-24T09:42:20.324Z,8.47
2019-02-24T09:44:49.244Z,10.27
2019-02-24T09:47:18.104Z,8.63
2019-02-24T09:49:47.025Z,7.63
2019-02-24T09:52:15.637Z,7.97
2019-02-24T09:54:44.366Z,7.77
2019-02-24T09:57:13.064Z,8.67
2019-02-24T09:59:41.713Z,7.83
2019-02-24T10:02:10.507Z,8.03
2019-02-24T10:04:39.272Z,8.37
2019-02-24T10:07:07.994Z,9.27
2019-02-24T10:09:36.711Z,8.83
2019-02-24T10:12:05.409Z,8.50
2019-02-24T10:14:34.289Z,8.73
2019-02-24T10:17:02.974Z,10.33
2019-02-24T10:19:31.697Z,9.17
2019-02-24T10:22:00.544Z,8.13
2019-02-24T10:24:29.179Z,7.63
2019-02-24T10:26:57.924Z,10.20
2019-02-24T10:29:26.611Z,8.87
2019-02-24T10:31:55.281Z,11.80
2019-02-24T10:34:23.985Z,9.77
2019-02-24T10:36:52.663Z,8.17
2019-02-24T10:39:29.491Z,9.87
2019-02-24T10:41:53.689Z,10.47
2019-02-24T10:44:22.427Z,9.30
2019-02-24T10:46:51.729Z,10.67
2019-02-24T10:49:20.541Z,9.70
2019-02-24T10:51:49.276Z,10.77
2019-02-24T10:54:17.973Z,10.53
2019-02-24T10:56:46.825Z,10.23
2019-02-24T10:59:16.919Z,10.27
2019-02-24T11:01:46.015Z,9.17
2019-02-24T11:04:14.769Z,10.90
2019-02-24T11:06:43.642Z,11.63
2019-02-24T11:09:12.333Z,11.63
2019-02-24T11:11:41.015Z,9.97
2019-02-24T11:14:09.675Z,13.10
2019-02-24T11:16:38.395Z,11.30
2019-02-24T11:19:07.077Z,11.27
2019-02-24T11:21:35.810Z,9.83
2019-02-24T11:24:04.677Z,10.30
2019-02-24T11:26:33.271Z,11.23
2019-02-24T11:29:02.069Z,11.13
2019-02-24T11:31:38.104Z,11.30
2019-02-24T11:34:01.233Z,9.67
2019-02-24T11:36:30.138Z,10.87
2019-02-24T11:38:59.126Z,11.73
2019-02-24T11:41:27.854Z,11.43
2019-02-24T11:43:56.671Z,12.70
2019-02-24T11:46:25.584Z,13.47
2019-02-24T11:48:54.379Z,15.27
2019-02-24T11:51:23.071Z,13.13
2019-02-24T11:53:51.879Z,13.27
2019-02-24T11:56:20.644Z,13.17
2019-02-24T11:58:49.354Z,13.93
2019-02-24T12:01:18.231Z,15.90
2019-02-24T12:03:47.054Z,14.67
2019-02-24T12:06:15.926Z,12.73
2019-02-24T12:08:44.683Z,14.70
2019-02-24T12:11:13.476Z,14.13
2019-02-24T12:13:42.231Z,12.90
2019-02-24T12:16:10.838Z,12.70
2019-02-24T12:18:39.626Z,13.67
2019-02-24T12:21:08.370Z,13.77
2019-02-24T12:23:37.197Z,14.57
2019-02-24T12:26:05.823Z,16.37
2019-02-24T12:28:34.630Z,14.73
2019-02-24T12:31:03.404Z,17.00
2019-02-24T12:33:32.051Z,14.93
2019-02-24T12:36:00.698Z,15.37
2019-02-24T12:38:29.370Z,15.50
2019-02-24T12:40:58.210Z,20.70
2019-02-24T12:43:26.922Z,15.17
2019-02-24T12:45:55.739Z,16.83
2019-02-24T12:48:24.461Z,16.87
2019-02-24T12:50:53.261Z,14.77
2019-02-24T12:53:22.063Z,15.10
2019-02-24T12:55:50.779Z,16.03
2019-02-24T12:58:19.412Z,13.77
2019-02-24T13:00:48.076Z,14.90
2019-02-24T13:03:23.775Z,15.47
2019-02-24T13:05:47.321Z,14.03
2019-02-24T13:08:15.991Z,14.50
2019-02-24T13:10:45.126Z,13.80
2019-02-24T13:13:13.901Z,13.97
2019-02-24T13:15:42.675Z,15.67
2019-02-24T13:18:11.337Z,13.57
2019-02-24T13:20:40.047Z,15.50
2019-02-24T13:23:08.991Z,15.70
2019-02-24T13:25:37.863Z,16.27
2019-02-24T13:28:06.716Z,15.57
2019-02-24T13:30:36.160Z,16.57
2019-02-24T13:33:05.203Z,15.17
2019-02-24T13:35:34.061Z,14.70
2019-02-24T13:38:02.895Z,16.47
2019-02-24T13:40:31.650Z,16.47
2019-02-24T13:43:00.517Z,17.17
2019-02-24T13:45:29.362Z,21.53
2019-02-24T13:47:58.043Z,21.00
2019-02-24T13:50:26.709Z,18.23
2019-02-24T13:52:55.428Z,18.57
2019-02-24T13:55:24.253Z,17.70
2019-02-24T13:57:53.045Z,17.37
2019-02-24T14:00:21.882Z,18.53
2019-02-24T14:02:50.763Z,19.00
2019-02-24T14:05:19.518Z,17.03
2019-02-24T14:07:48.511Z,15.90
2019-02-24T14:10:17.169Z,17.60
2019-02-24T14:12:45.951Z,17.93
2019-02-24T14:15:14.774Z,16.87
2019-02-24T14:17:43.650Z,19.37
2019-02-24T14:20:12.442Z,17.13
2019-02-24T14:22:41.297Z,16.80
2019-02-24T14:25:09.967Z,16.67
2019-02-24T14:27:38.741Z,17.13
2019-02-24T14:30:08.666Z,16.47
2019-02-24T14:32:37.453Z,18.30
2019-02-24T14:35:06.847Z,17.03
2019-02-24T14:37:35.551Z,16.73
2019-02-24T14:40:04.465Z,16.43
2019-02-24T14:42:33.355Z,16.37
2019-02-24T14:45:02.070Z,16.60
2019-02-24T14:47:30.906Z,17.23
2019-02-24T14:49:59.747Z,16.53
2019-02-24T14:52:28.580Z,17.17
2019-02-24T14:54:57.275Z,15.50
2019-02-24T14:57:25.959Z,15.33
2019-02-24T14:59:54.565Z,16.70
2019-02-24T15:02:23.524Z,15.90
2019-02-24T15:04:52.172Z,16.30
2019-02-24T15:07:20.877Z,16.57
2019-02-24T15:09:49.634Z,16.50
2019-02-24T15:12:18.473Z,14.63
2019-02-24T15:14:47.132Z,16.73
2019-02-24T15:17:15.851Z,17.97
2019-02-24T15:19:44.534Z,19.50
2019-02-24T15:22:13.170Z,17.90
2019-02-24T15:24:41.936Z,16.87
2019-02-24T15:27:10.816Z,16.60
2019-02-24T15:29:39.700Z,15.27
2019-02-24T15:32:09.403Z,15.53
2019-02-24T15:34:38.352Z,16.80
2019-02-24T15:37:07.164Z,19.67
2019-02-24T15:39:35.823Z,17.30
2019-02-24T15:42:04.550Z,16.97
2019-02-24T15:44:33.333Z,17.73
2019-02-24T15:47:02.152Z,17.07
2019-02-24T15:49:30.918Z,18.23
2019-02-24T15:51:59.762Z,15.87
2019-02-24T15:54:28.619Z,15.33
2019-02-24T15:56:57.437Z,15.20
2019-02-24T15:59:26.166Z,15.57
2019-02-24T16:01:54.852Z,15.67
2019-02-24T16:04:23.481Z,18.10
2019-02-24T16:06:52.219Z,16.73
2019-02-24T16:09:20.945Z,16.47
2019-02-24T16:11:49.733Z,15.83
2019-02-24T16:14:18.485Z,14.60
2019-02-24T16:16:47.274Z,13.87
2019-02-24T16:19:16.060Z,14.57
2019-02-24T16:21:44.689Z,14.87
2019-02-24T16:24:13.467Z,14.20
2019-02-24T16:26:42.315Z,15.00
2019-02-24T16:29:10.960Z,14.00
2019-02-24T16:31:39.926Z,13.43
2019-02-24T16:34:08.776Z,13.47
2019-02-24T16:36:37.432Z,13.13
2019-02-24T16:39:06.518Z,14.37
2019-02-24T16:41:35.204Z,12.67
2019-02-24T16:44:03.958Z,13.00
2019-02-24T16:46:32.730Z,13.67
2019-02-24T16:49:03.395Z,13.77
2019-02-24T16:51:32.092Z,13.30
2019-02-24T16:54:00.983Z,13.20
2019-02-24T16:56:29.800Z,12.50
2019-02-24T16:58:58.464Z,13.53
2019-02-24T17:01:27.354Z,11.87
2019-02-24T17:03:55.955Z,13.60
2019-02-24T17:06:24.672Z,12.37
2019-02-24T17:09:01.411Z,14.37
2019-02-24T17:11:23.964Z,13.63
2019-02-24T17:13:52.664Z,12.93
2019-02-24T17:16:21.721Z,12.53
2019-02-24T17:18:50.660Z,13.20
2019-02-24T17:21:19.334Z,11.97
2019-02-24T17:23:50.074Z,11.80
2019-02-24T17:26:18.527Z,12.27
2019-02-24T17:28:47.243Z,12.40
2019-02-24T17:31:15.943Z,11.90
2019-02-24T17:33:44.825Z,11.20
2019-02-24T17:36:13.752Z,11.10
2019-02-24T17:38:42.924Z,10.97
2019-02-24T17:41:11.747Z,12.57
2019-02-24T17:43:40.585Z,11.07
2019-02-24T17:46:09.434Z,11.80
2019-02-24T17:48:38.037Z,11.10
2019-02-24T17:51:06.835Z,11.10
2019-02-24T17:53:35.556Z,10.60
2019-02-24T17:56:04.386Z,12.50
2019-02-24T17:58:33.066Z,12.30
2019-02-24T18:01:03.786Z,11.90
2019-02-24T18:03:39.042Z,12.27
2019-02-24T18:06:03.402Z,11.90
2019-02-24T18:08:32.122Z,13.03
2019-02-24T18:11:00.839Z,13.27
2019-02-24T18:13:29.565Z,11.57
2019-02-24T18:15:58.355Z,11.93
2019-02-24T18:18:27.030Z,12.17
2019-02-24T18:20:55.820Z,12.97
2019-02-24T18:23:24.476Z,13.37
2019-02-24T18:25:53.144Z,13.73
2019-02-24T18:28:21.824Z,13.37
2019-02-24T18:30:50.539Z,14.47
2019-02-24T18:33:19.218Z,13.40
2019-02-24T18:35:47.946Z,14.80
2019-02-24T18:38:16.802Z,15.57
2019-02-24T18:40:45.712Z,15.47
2019-02-24T18:43:14.616Z,13.87
2019-02-24T18:45:43.422Z,11.83
2019-02-24T18:48:12.132Z,12.57
2019-02-24T18:50:40.858Z,13.30
2019-02-24T18:53:09.682Z,12.60
2019-02-24T18:55:38.583Z,12.27
2019-02-24T18:58:07.294Z,12.90
2019-02-24T19:00:36.128Z,13.07
2019-02-24T19:03:05.027Z,14.23
2019-02-24T19:05:33.879Z,13.57
2019-02-24T19:08:02.672Z,13.30
2019-02-24T19:10:31.490Z,13.20
2019-02-24T19:13:00.256Z,15.07
2019-02-24T19:15:29.174Z,15.07
2019-02-24T19:17:58.009Z,14.50
2019-02-24T19:20:26.732Z,15.70
2019-02-24T19:22:55.528Z,14.63
2019-02-24T19:25:24.468Z,13.97
2019-02-24T19:27:53.177Z,13.60
2019-02-24T19:30:21.954Z,13.50
2019-02-24T19:32:50.644Z,12.60
2019-02-24T19:35:19.343Z,14.33
2019-02-24T19:37:48.115Z,15.27
2019-02-24T19:40:16.959Z,14.23
2019-02-24T19:42:45.748Z,14.63
2019-02-24T19:45:14.882Z,14.70
2019-02-24T19:47:43.673Z,13.90
2019-02-24T19:50:13.359Z,17.73
2019-02-24T19:52:42.273Z,14.67
2019-02-24T19:55:10.975Z,15.07
2019-02-24T19:57:39.691Z,15.73
2019-02-24T20:00:10.083Z,15.23
2019-02-24T20:02:38.868Z,16.43
2019-02-24T20:05:07.928Z,14.83
2019-02-24T20:07:36.690Z,16.07
2019-02-24T20:10:05.966Z,16.67
2019-02-24T20:12:34.798Z,15.03
2019-02-24T20:15:03.554Z,15.63
2019-02-24T20:17:32.495Z,16.53
2019-02-24T20:20:01.188Z,13.97
2019-02-24T20:22:30.112Z,17.53
2019-02-24T20:24:58.812Z,14.43
2019-02-24T20:27:27.516Z,15.67
2019-02-24T20:29:56.272Z,14.97
2019-02-24T20:32:25.176Z,14.63
2019-02-24T20:34:53.964Z,16.10
2019-02-24T20:37:22.702Z,16.03
2019-02-24T20:39:51.490Z,14.40
2019-02-24T20:42:20.278Z,15.40
2019-02-24T20:44:48.916Z,16.23
2019-02-24T20:47:17.690Z,16.43
2019-02-24T20:49:46.548Z,14.70
2019-02-24T20:52:15.436Z,15.90
2019-02-24T20:54:44.100Z,17.30
2019-02-24T20:57:13.358Z,17.50
2019-02-24T20:59:42.054Z,17.23
2019-02-24T21:02:10.824Z,15.20
2019-02-24T21:04:39.634Z,16.90
2019-02-24T21:07:08.380Z,17.90
2019-02-24T21:09:37.065Z,18.13
2019-02-24T21:12:05.734Z,14.70
2019-02-24T21:14:34.426Z,16.57
2019-02-24T21:17:03.040Z,13.60
2019-02-24T21:19:31.824Z,15.33
2019-02-24T21:22:00.618Z,14.63
2019-02-24T21:24:29.567Z,16.23
2019-02-24T21:26:58.269Z,15.10
2019-02-24T21:29:28.826Z,15.07
2019-02-24T21:31:57.589Z,13.67
2019-02-24T21:34:26.322Z,16.10
2019-02-24T21:36:55.222Z,16.23
2019-02-24T21:39:24.016Z,16.00
2019-02-24T21:41:52.874Z,13.20
2019-02-24T21:44:21.564Z,16.23
2019-02-24T21:46:50.422Z,17.50
2019-02-24T21:49:19.125Z,16.13
2019-02-24T21:51:47.970Z,18.13
2019-02-24T21:54:16.622Z,15.23
2019-02-24T21:56:45.324Z,15.23
2019-02-24T21:59:14.280Z,15.07
2019-02-24T22:01:43.108Z,14.63
2019-02-24T22:04:11.874Z,15.53
2019-02-24T22:06:40.866Z,16.13
2019-02-24T22:09:10.271Z,15.27
2019-02-24T22:11:39.282Z,14.10
2019-02-24T22:14:07.982Z,14.17
2019-02-24T22:16:36.686Z,15.70
2019-02-24T22:19:05.306Z,14.33
2019-02-24T22:21:34.072Z,14.40
2019-02-24T22:24:02.731Z,15.83
2019-02-24T22:26:31.523Z,15.33
2019-02-24T22:29:00.280Z,15.87
2019-02-24T22:31:29.207Z,14.37
2019-02-24T22:33:58.039Z,14.40
2019-02-24T22:36:26.824Z,13.97
2019-02-24T22:38:55.668Z,13.97
2019-02-24T22:41:24.355Z,13.80
2019-02-24T22:43:53.533Z,14.20
2019-02-24T22:46:22.397Z,13.97
2019-02-24T22:48:51.176Z,15.10
2019-02-24T22:51:19.930Z,15.33
2019-02-24T22:53:48.552Z,13.43
2019-02-24T22:56:17.301Z,16.00
2019-02-24T22:58:46.024Z,16.10
2019-02-24T23:01:19.764Z,15.10
2019-02-24T23:03:48.844Z,14.73
2019-02-24T23:06:17.737Z,13.73
2019-02-24T23:08:46.560Z,15.43
2019-02-24T23:11:15.390Z,13.63
2019-02-24T23:13:44.240Z,14.40
2019-02-24T23:16:13.036Z,14.70
2019-02-24T23:18:41.835Z,13.13
2019-02-24T23:21:10.468Z,14.40
2019-02-24T23:23:39.182Z,14.13
2019-02-24T23:26:07.881Z,14.20
2019-02-24T23:28:36.708Z,13.50
2019-02-24T23:31:05.454Z,13.97
2019-02-24T23:33:34.493Z,14.53
2019-02-24T23:36:03.238Z,14.30
2019-02-24T23:38:32.072Z,14.30
2019-02-24T23:41:00.828Z,15.23
2019-02-24T23:43:30.706Z,13.00
2019-02-24T23:46:01.761Z,12.23
2019-02-24T23:48:30.392Z,12.70
2019-02-24T23:50:59.441Z,12.60
2019-02-24T23:53:28.318Z,13.23
2019-02-24T23:55:57.039Z,12.10
2019-02-24T23:58:26.066Z,13.67
